Time;durP1;ratioP1;P1;durP2;ratioP2;P2;SDS_P1;SDS_P2;PMS_P1;PMS_P2;Temp;Humidity;BMP_temperature;BMP_pressure;BME280_temperature;BME280_humidity;BME280_pressure;Samples;Min_cycle;Max_cycle;Signal;HPM_P1;HPM_P2
2024/02/28 00:02:16;;;;;;;18.08;7.93;;;;;;;;;;5049033;28;20099;-69
2024/02/28 00:04:42;;;;;;;15.63;7.78;;;;;;;;;;5049936;28;20029;-68
2024/02/28 00:07:07;;;;;;;15.40;7.85;;;;;;;;;;5048924;28;20400;-68
2024/02/28 00:09:32;;;;;;;15.25;7.47;;;;;;;;;;5048918;28;20036;-67
2024/02/28 00:11:58;;;;;;;23.05;8.05;;;;;;;;;;5044970;28;20062;-68
2024/02/28 00:14:23;;;;;;;23.73;8.60;;;;;;;;;;5049332;28;20150;-68
2024/02/28 00:16:49;;;;;;;17.70;8.07;;;;;;;;;;5047724;28;20040;-68
2024/02/28 00:19:14;;;;;;;15.13;7.93;;;;;;;;;;5049738;28;20059;-68
2024/02/28 00:21:40;;;;;;;16.50;7.57;;;;;;;;;;5049054;28;20115;-68
2024/02/28 00:24:09;;;;;;;18.52;7.47;;;;;;;;;;5050003;28;20484;-68
2024/02/28 00:26:34;;;;;;;16.92;7.85;;;;;;;;;;5052798;28;20376;-69
2024/02/28 00:29:00;;;;;;;17.63;7.28;;;;;;;;;;5018357;28;20041;-68
2024/02/28 00:31:25;;;;;;;22.30;8.30;;;;;;;;;;5052568;28;20024;-67
2024/02/28 00:33:50;;;;;;;17.77;7.00;;;;;;;;;;5034925;28;20424;-68
2024/02/28 00:36:16;;;;;;;28.73;7.65;;;;;;;;;;5052269;28;20043;-68
2024/02/28 00:38:42;;;;;;;17.45;8.02;;;;;;;;;;5018051;28;20091;-67
2024/02/28 00:41:07;;;;;;;23.95;7.38;;;;;;;;;;5052377;28;20751;-69
2024/02/28 00:43:32;;;;;;;29.13;5.28;;;;;;;;;;5035078;28;20073;-68
2024/02/28 00:45:58;;;;;;;26.88;5.65;;;;;;;;;;5034405;28;20621;-69
2024/02/28 00:48:24;;;;;;;33.97;5.47;;;;;;;;;;5034927;28;20033;-68
2024/02/28 00:50:49;;;;;;;35.55;5.47;;;;;;;;;;5052629;28;20501;-67
2024/02/28 00:53:14;;;;;;;26.88;4.97;;;;;;;;;;5034206;28;20116;-68
2024/02/28 00:55:40;;;;;;;35.15;5.57;;;;;;;;;;5052534;28;20029;-68
2024/02/28 00:58:05;;;;;;;25.80;4.47;;;;;;;;;;5052548;28;20041;-67
2024/02/28 01:00:30;;;;;;;38.38;5.43;;;;;;;;;;5051769;28;20103;-68
2024/02/28 01:02:56;;;;;;;25.67;5.63;;;;;;;;;;5052377;28;20675;-67
2024/02/28 01:05:21;;;;;;;33.72;5.32;;;;;;;;;;5052565;28;20099;-68
2024/02/28 01:07:46;;;;;;;25.45;4.70;;;;;;;;;;5051741;28;20518;-67
2024/02/28 01:10:12;;;;;;;28.75;5.70;;;;;;;;;;5051758;28;20369;-68
2024/02/28 01:12:37;;;;;;;44.88;6.40;;;;;;;;;;5052026;28;20562;-67
2024/02/28 01:15:03;;;;;;;33.40;6.57;;;;;;;;;;5051808;28;20461;-67
2024/02/28 01:17:29;;;;;;;37.63;6.63;;;;;;;;;;5051675;28;20025;-67
2024/02/28 01:19:54;;;;;;;36.20;6.68;;;;;;;;;;5034183;28;20107;-68
2024/02/28 01:22:19;;;;;;;24.35;5.60;;;;;;;;;;5052116;28;20045;-68
2024/02/28 01:24:44;;;;;;;30.52;6.72;;;;;;;;;;5051456;28;20024;-68
2024/02/28 01:27:10;;;;;;;36.47;7.05;;;;;;;;;;5051614;28;20091;-68
2024/02/28 01:29:35;;;;;;;24.65;6.05;;;;;;;;;;5052071;28;20107;-68
2024/02/28 01:32:00;;;;;;;19.02;5.95;;;;;;;;;;5051282;28;20044;-67
2024/02/28 01:34:26;;;;;;;16.67;5.82;;;;;;;;;;5033088;28;20048;-68
2024/02/28 01:36:51;;;;;;;21.55;6.18;;;;;;;;;;5043209;28;20028;-68
2024/02/28 01:39:17;;;;;;;25.48;5.88;;;;;;;;;;5051246;28;20029;-67
2024/02/28 01:41:51;;;;;;;24.38;6.38;;;;;;;;;;5050256;28;20151;-67
2024/02/28 01:44:16;;;;;;;32.67;6.18;;;;;;;;;;5051701;28;20025;-68
2024/02/28 01:46:41;;;;;;;19.02;5.60;;;;;;;;;;5050733;28;20551;-68
2024/02/28 01:49:07;;;;;;;13.40;5.70;;;;;;;;;;5051340;28;20036;-67
2024/02/28 01:51:32;;;;;;;20.75;5.75;;;;;;;;;;5033812;28;20036;-67
2024/02/28 01:53:58;;;;;;;18.80;5.45;;;;;;;;;;5051108;28;20037;-68
2024/02/28 01:56:25;;;;;;;22.58;6.65;;;;;;;;;;5032499;28;20083;-68
2024/02/28 01:58:50;;;;;;;18.88;5.47;;;;;;;;;;5051448;28;20028;-67
2024/02/28 02:01:17;;;;;;;26.17;4.97;;;;;;;;;;5032618;28;20059;-68
2024/02/28 02:03:45;;;;;;;107.50;7.72;;;;;;;;;;5050470;28;20052;-68
2024/02/28 02:06:11;;;;;;;19.40;5.40;;;;;;;;;;5033143;28;20100;-68
2024/02/28 02:08:37;;;;;;;26.48;5.43;;;;;;;;;;5031202;28;20115;-67
2024/02/28 02:11:03;;;;;;;46.05;5.95;;;;;;;;;;5032394;28;20033;-67
2024/02/28 02:13:28;;;;;;;13.15;4.97;;;;;;;;;;5033416;28;20032;-67
2024/02/28 02:15:53;;;;;;;22.17;5.50;;;;;;;;;;5050809;28;20036;-68
2024/02/28 02:18:19;;;;;;;23.98;4.75;;;;;;;;;;5032850;28;20045;-68
2024/02/28 02:20:46;;;;;;;21.88;5.28;;;;;;;;;;5050733;28;20132;-68
2024/02/28 02:23:12;;;;;;;17.38;5.32;;;;;;;;;;5050537;28;20507;-68
2024/02/28 02:25:48;;;;;;;22.45;5.60;;;;;;;;;;5050041;28;20037;-68
2024/02/28 02:28:13;;;;;;;50.60;6.35;;;;;;;;;;5046736;28;20049;-68
2024/02/28 02:30:39;;;;;;;96.72;6.85;;;;;;;;;;5050391;28;20500;-69
2024/02/28 02:33:07;;;;;;;38.15;5.30;;;;;;;;;;5032548;28;20108;-67
2024/02/28 02:35:33;;;;;;;33.90;5.82;;;;;;;;;;5050140;28;20091;-68
2024/02/28 02:37:59;;;;;;;19.55;4.57;;;;;;;;;;5032594;28;20123;-67
2024/02/28 02:40:24;;;;;;;22.98;4.90;;;;;;;;;;5049959;28;20559;-69
2024/02/28 02:42:50;;;;;;;58.97;6.28;;;;;;;;;;5050170;28;20032;-68
2024/02/28 02:45:16;;;;;;;15.18;4.32;;;;;;;;;;5050697;28;20032;-67
2024/02/28 02:47:43;;;;;;;51.47;5.07;;;;;;;;;;5049516;28;20127;-68
2024/02/28 02:50:09;;;;;;;28.25;4.63;;;;;;;;;;5050374;28;20091;-67
2024/02/28 02:52:34;;;;;;;29.20;5.00;;;;;;;;;;5032759;28;20052;-67
2024/02/28 02:54:59;;;;;;;23.40;4.65;;;;;;;;;;5050537;28;20068;-67
2024/02/28 02:57:25;;;;;;;40.15;4.65;;;;;;;;;;5049504;28;20120;-67
2024/02/28 02:59:50;;;;;;;22.17;4.68;;;;;;;;;;5050030;28;20068;-68
2024/02/28 03:02:15;;;;;;;28.92;5.00;;;;;;;;;;5049674;28;20067;-68
2024/02/28 03:04:41;;;;;;;50.90;5.07;;;;;;;;;;5049901;28;20079;-69
2024/02/28 03:07:06;;;;;;;49.53;5.35;;;;;;;;;;5050157;28;20072;-67
2024/02/28 03:09:31;;;;;;;19.05;4.47;;;;;;;;;;5050136;28;20065;-68
2024/02/28 03:11:57;;;;;;;14.40;4.05;;;;;;;;;;5049758;28;20095;-69
2024/02/28 03:14:22;;;;;;;16.27;4.57;;;;;;;;;;5050054;28;20485;-68
2024/02/28 03:16:48;;;;;;;25.58;5.20;;;;;;;;;;5031921;28;20405;-68
2024/02/28 03:19:14;;;;;;;16.67;4.70;;;;;;;;;;5050493;28;20098;-68
2024/02/28 03:21:40;;;;;;;17.02;4.65;;;;;;;;;;5031978;28;20116;-67
2024/02/28 03:24:06;;;;;;;18.45;4.45;;;;;;;;;;5049802;28;20041;-68
2024/02/28 03:26:31;;;;;;;36.35;5.65;;;;;;;;;;5049693;28;20049;-67
2024/02/28 03:28:57;;;;;;;23.63;4.75;;;;;;;;;;5049721;28;20060;-68
2024/02/28 03:31:22;;;;;;;23.10;4.60;;;;;;;;;;5031596;28;20040;-69
2024/02/28 03:33:48;;;;;;;10.77;4.40;;;;;;;;;;5049378;28;20476;-68
2024/02/28 03:36:13;;;;;;;11.27;3.95;;;;;;;;;;5049304;28;20495;-68
2024/02/28 03:38:38;;;;;;;12.65;3.65;;;;;;;;;;5048835;28;20382;-67
2024/02/28 03:41:05;;;;;;;28.27;5.22;;;;;;;;;;5048880;28;20095;-68
2024/02/28 03:43:31;;;;;;;12.30;3.90;;;;;;;;;;5049742;28;20041;-68
2024/02/28 03:45:56;;;;;;;20.98;4.72;;;;;;;;;;5049321;28;20029;-68
2024/02/28 03:48:21;;;;;;;13.23;4.18;;;;;;;;;;5049855;28;20103;-68
2024/02/28 03:50:47;;;;;;;13.82;3.67;;;;;;;;;;5049634;28;20049;-67
2024/02/28 03:53:12;;;;;;;23.65;4.88;;;;;;;;;;5049852;28;20079;-68
2024/02/28 03:55:37;;;;;;;15.80;3.67;;;;;;;;;;5048819;28;20108;-68
2024/02/28 03:58:03;;;;;;;17.63;3.92;;;;;;;;;;5051119;28;20472;-67
2024/02/28 04:00:28;;;;;;;20.60;4.18;;;;;;;;;;5052624;28;20021;-68
2024/02/28 04:02:54;;;;;;;22.10;4.60;;;;;;;;;;5035790;28;20046;-68
2024/02/28 04:05:19;;;;;;;23.20;4.07;;;;;;;;;;5053357;28;20040;-68
2024/02/28 04:07:44;;;;;;;26.17;4.22;;;;;;;;;;5052590;28;20059;-68
2024/02/28 04:10:11;;;;;;;43.47;4.95;;;;;;;;;;5034986;28;20044;-69
2024/02/28 04:12:36;;;;;;;18.23;4.15;;;;;;;;;;5053392;28;20045;-68
2024/02/28 04:15:02;;;;;;;16.33;4.20;;;;;;;;;;5053164;28;20461;-68
2024/02/28 04:17:27;;;;;;;48.03;5.30;;;;;;;;;;5053154;28;20060;-67
2024/02/28 04:19:53;;;;;;;18.77;4.07;;;;;;;;;;5052453;28;20037;-68
2024/02/28 04:22:18;;;;;;;15.80;3.88;;;;;;;;;;5052908;28;20029;-68
2024/02/28 04:24:43;;;;;;;20.45;4.70;;;;;;;;;;5053048;28;20057;-67
2024/02/28 04:27:11;;;;;;;18.42;4.93;;;;;;;;;;5052432;28;20036;-68
2024/02/28 04:29:36;;;;;;;18.10;4.50;;;;;;;;;;5053140;28;20033;-68
2024/02/28 04:32:02;;;;;;;13.93;4.53;;;;;;;;;;5052886;28;20052;-67
2024/02/28 04:34:27;;;;;;;16.42;3.92;;;;;;;;;;5052526;28;20049;-68
2024/02/28 04:36:52;;;;;;;14.27;4.50;;;;;;;;;;5050433;28;20416;-68
2024/02/28 04:39:18;;;;;;;21.42;4.38;;;;;;;;;;5051276;28;20037;-69
2024/02/28 04:41:43;;;;;;;13.32;4.32;;;;;;;;;;5052080;28;20037;-68
2024/02/28 04:44:08;;;;;;;20.45;4.53;;;;;;;;;;5052723;28;20033;-68
2024/02/28 04:46:34;;;;;;;32.00;5.25;;;;;;;;;;5052225;28;20115;-68
2024/02/28 04:48:59;;;;;;;32.63;5.47;;;;;;;;;;5034933;28;20674;-67
2024/02/28 04:51:25;;;;;;;13.35;4.38;;;;;;;;;;5052471;28;20465;-67
2024/02/28 04:53:50;;;;;;;17.38;4.38;;;;;;;;;;5052239;28;20045;-68
2024/02/28 04:56:15;;;;;;;14.65;4.10;;;;;;;;;;5052295;28;20072;-68
2024/02/28 04:58:41;;;;;;;22.60;4.57;;;;;;;;;;5052464;28;20051;-67
2024/02/28 05:01:06;;;;;;;15.45;4.10;;;;;;;;;;5051417;28;20068;-68
2024/02/28 05:03:31;;;;;;;18.33;4.35;;;;;;;;;;5051766;28;20095;-68
2024/02/28 05:05:57;;;;;;;22.00;4.55;;;;;;;;;;5051835;28;20028;-68
2024/02/28 05:08:22;;;;;;;17.45;4.70;;;;;;;;;;5052296;28;20296;-68
2024/02/28 05:10:50;;;;;;;11.20;4.20;;;;;;;;;;5051444;28;20495;-68
2024/02/28 05:13:15;;;;;;;15.18;3.88;;;;;;;;;;5052183;28;20040;-69
2024/02/28 05:15:40;;;;;;;16.20;4.65;;;;;;;;;;5052420;28;20032;-67
2024/02/28 05:18:06;;;;;;;18.33;4.32;;;;;;;;;;5051114;28;20040;-68
2024/02/28 05:20:31;;;;;;;13.27;4.18;;;;;;;;;;5051683;28;20152;-69
2024/02/28 05:22:56;;;;;;;24.77;4.47;;;;;;;;;;5052014;28;20037;-68
2024/02/28 05:25:22;;;;;;;26.83;4.15;;;;;;;;;;5051682;28;20497;-68
2024/02/28 05:27:47;;;;;;;13.57;3.38;;;;;;;;;;5051240;28;20599;-68
2024/02/28 05:30:13;;;;;;;16.15;4.15;;;;;;;;;;5052065;28;20041;-68
2024/02/28 05:32:38;;;;;;;21.67;3.88;;;;;;;;;;5050451;28;20558;-68
2024/02/28 05:35:04;;;;;;;15.88;4.43;;;;;;;;;;5051787;28;20048;-67
2024/02/28 05:37:29;;;;;;;21.30;3.72;;;;;;;;;;5051576;28;20037;-68
2024/02/28 05:39:55;;;;;;;18.00;3.92;;;;;;;;;;5033664;28;20037;-68
2024/02/28 05:42:23;;;;;;;18.77;4.57;;;;;;;;;;5051201;28;20480;-68
2024/02/28 05:44:50;;;;;;;13.88;4.07;;;;;;;;;;5034273;28;20551;-67
2024/02/28 05:47:15;;;;;;;16.65;3.95;;;;;;;;;;5033242;28;20036;-68
2024/02/28 05:49:40;;;;;;;13.35;3.78;;;;;;;;;;5033606;28;20043;-68
2024/02/28 05:52:06;;;;;;;35.92;4.35;;;;;;;;;;5051359;28;20068;-68
2024/02/28 05:54:31;;;;;;;24.30;4.32;;;;;;;;;;5049663;28;20041;-67
2024/02/28 05:56:56;;;;;;;71.28;5.43;;;;;;;;;;5051134;28;20043;-68
2024/02/28 05:59:22;;;;;;;35.55;4.53;;;;;;;;;;5050063;28;20033;-68
2024/02/28 06:01:47;;;;;;;94.15;5.25;;;;;;;;;;5050480;28;20135;-69
2024/02/28 06:04:12;;;;;;;21.85;4.72;;;;;;;;;;5050989;28;20283;-68
2024/02/28 06:06:38;;;;;;;19.95;3.75;;;;;;;;;;5050762;28;20164;-67
2024/02/28 06:09:03;;;;;;;17.25;4.00;;;;;;;;;;5051190;28;20045;-68
2024/02/28 06:11:29;;;;;;;18.80;4.22;;;;;;;;;;5050966;28;20087;-67
2024/02/28 06:13:54;;;;;;;13.73;4.03;;;;;;;;;;5050385;28;20611;-69
2024/02/28 06:16:19;;;;;;;17.67;4.18;;;;;;;;;;5051245;28;20052;-68
2024/02/28 06:18:45;;;;;;;17.17;3.67;;;;;;;;;;5050206;28;20028;-68
2024/02/28 06:21:10;;;;;;;93.05;5.43;;;;;;;;;;5050862;28;20079;-68
2024/02/28 06:23:36;;;;;;;25.55;4.32;;;;;;;;;;5050917;28;20033;-67
2024/02/28 06:26:01;;;;;;;23.38;4.72;;;;;;;;;;5050846;28;20035;-67
2024/02/28 06:28:26;;;;;;;16.58;3.70;;;;;;;;;;5050478;28;20060;-68
2024/02/28 06:30:51;;;;;;;15.50;4.03;;;;;;;;;;5050291;28;20041;-69
2024/02/28 06:33:17;;;;;;;14.63;3.95;;;;;;;;;;5049982;28;20048;-68
2024/02/28 06:35:42;;;;;;;12.00;3.33;;;;;;;;;;5050193;28;20574;-69
2024/02/28 06:38:08;;;;;;;12.57;3.80;;;;;;;;;;5050427;28;20079;-67
2024/02/28 06:40:33;;;;;;;17.88;4.03;;;;;;;;;;5050813;28;20451;-68
2024/02/28 06:43:00;;;;;;;9.25;3.53;;;;;;;;;;5049868;28;20531;-68
2024/02/28 06:45:25;;;;;;;15.93;4.43;;;;;;;;;;5050454;28;20033;-67
2024/02/28 06:47:50;;;;;;;15.95;3.97;;;;;;;;;;5049763;28;20504;-68
2024/02/28 06:50:16;;;;;;;17.02;4.55;;;;;;;;;;5050421;28;20045;-68
2024/02/28 06:52:42;;;;;;;13.57;3.65;;;;;;;;;;5050314;28;20218;-68
2024/02/28 06:55:10;;;;;;;15.27;4.03;;;;;;;;;;5032824;28;20024;-67
2024/02/28 06:57:40;;;;;;;20.95;6.28;;;;;;;;;;5049939;28;20045;-67
2024/02/28 07:00:09;;;;;;;28.45;6.28;;;;;;;;;;5049825;28;20496;-68
2024/02/28 07:02:35;;;;;;;28.98;6.72;;;;;;;;;;5046712;28;20072;-68
2024/02/28 07:05:02;;;;;;;20.42;6.10;;;;;;;;;;5050052;28;20037;-69
2024/02/28 07:07:28;;;;;;;21.10;4.82;;;;;;;;;;5049432;28;20076;-68
2024/02/28 07:09:53;;;;;;;14.27;4.97;;;;;;;;;;5030931;28;20638;-67
2024/02/28 07:12:18;;;;;;;18.00;3.63;;;;;;;;;;5032111;28;20521;-69
2024/02/28 07:14:44;;;;;;;12.23;4.28;;;;;;;;;;5049928;28;20041;-67
2024/02/28 07:17:10;;;;;;;15.88;4.03;;;;;;;;;;5049421;28;20041;-68
2024/02/28 07:19:35;;;;;;;13.82;4.35;;;;;;;;;;5050124;28;20414;-69
2024/02/28 07:22:01;;;;;;;19.35;4.43;;;;;;;;;;5037874;28;20034;-70
2024/02/28 07:24:27;;;;;;;16.73;4.78;;;;;;;;;;5047779;28;20035;-70
2024/02/28 07:26:52;;;;;;;18.13;4.63;;;;;;;;;;5048042;28;20473;-69
2024/02/28 07:29:17;;;;;;;21.20;4.93;;;;;;;;;;5031148;28;20035;-70
2024/02/28 07:31:43;;;;;;;18.05;6.28;;;;;;;;;;5049848;28;20116;-69
2024/02/28 07:34:09;;;;;;;28.83;7.38;;;;;;;;;;5041076;28;20052;-68
2024/02/28 07:36:34;;;;;;;31.17;7.60;;;;;;;;;;5034916;28;20489;-68
2024/02/28 07:39:00;;;;;;;36.05;8.95;;;;;;;;;;5052606;28;20090;-67
2024/02/28 07:41:25;;;;;;;37.28;9.50;;;;;;;;;;5053224;28;20037;-70
2024/02/28 07:43:50;;;;;;;30.10;8.60;;;;;;;;;;5054395;28;20037;-70
2024/02/28 07:46:16;;;;;;;42.20;8.73;;;;;;;;;;5053753;28;20041;-70
2024/02/28 07:48:41;;;;;;;34.13;8.88;;;;;;;;;;5054179;28;20083;-70
2024/02/28 07:51:08;;;;;;;32.28;8.23;;;;;;;;;;5052794;28;20091;-69
2024/02/28 07:53:33;;;;;;;22.95;6.13;;;;;;;;;;5053513;28;20025;-66
2024/02/28 07:55:58;;;;;;;18.98;5.07;;;;;;;;;;5052893;28;20620;-67
2024/02/28 07:58:24;;;;;;;24.30;6.93;;;;;;;;;;5053623;28;20601;-66
2024/02/28 08:00:50;;;;;;;21.55;5.00;;;;;;;;;;5052563;28;20036;-69
2024/02/28 08:03:16;;;;;;;25.05;7.32;;;;;;;;;;5034853;28;20051;-70
2024/02/28 08:05:43;;;;;;;31.25;7.72;;;;;;;;;;5052466;28;20048;-71
2024/02/28 08:08:09;;;;;;;32.88;9.25;;;;;;;;;;5052607;28;20462;-69
2024/02/28 08:10:35;;;;;;;28.58;8.30;;;;;;;;;;5053180;28;20037;-69
2024/02/28 08:13:01;;;;;;;40.08;9.07;;;;;;;;;;5053181;28;20090;-69
2024/02/28 08:15:26;;;;;;;27.23;7.07;;;;;;;;;;5053121;28;20029;-69
2024/02/28 08:17:51;;;;;;;26.15;6.18;;;;;;;;;;5035381;28;20048;-69
2024/02/28 08:20:17;;;;;;;32.75;7.75;;;;;;;;;;5053165;28;20033;-69
2024/02/28 08:22:42;;;;;;;38.67;8.50;;;;;;;;;;5052755;28;20063;-69
2024/02/28 08:25:11;;;;;;;39.85;9.85;;;;;;;;;;5041506;28;20052;-69
2024/02/28 08:27:37;;;;;;;27.05;7.88;;;;;;;;;;5053855;28;20044;-70
2024/02/28 08:30:03;;;;;;;40.92;10.15;;;;;;;;;;5063714;28;20044;-69
2024/02/28 08:32:28;;;;;;;37.30;9.55;;;;;;;;;;5053019;28;20035;-69
2024/02/28 08:34:54;;;;;;;36.22;9.85;;;;;;;;;;5034242;28;20053;-69
2024/02/28 08:37:19;;;;;;;35.22;8.93;;;;;;;;;;5064469;28;20078;-70
2024/02/28 08:39:45;;;;;;;38.35;9.43;;;;;;;;;;5033927;28;20098;-69
2024/02/28 08:42:10;;;;;;;36.90;9.10;;;;;;;;;;5052059;28;20083;-69
2024/02/28 08:44:37;;;;;;;31.50;7.60;;;;;;;;;;5032677;28;20029;-70
2024/02/28 08:47:02;;;;;;;40.55;8.45;;;;;;;;;;5059735;28;20062;-69
2024/02/28 08:49:27;;;;;;;44.55;8.75;;;;;;;;;;5056672;28;20044;-69
2024/02/28 08:51:53;;;;;;;29.38;8.75;;;;;;;;;;5051835;28;20036;-69
2024/02/28 08:54:18;;;;;;;27.63;8.27;;;;;;;;;;5054707;28;20040;-69
2024/02/28 08:56:43;;;;;;;30.15;8.18;;;;;;;;;;5055401;28;20079;-68
2024/02/28 08:59:09;;;;;;;29.33;8.85;;;;;;;;;;5049864;28;20064;-71
2024/02/28 09:01:35;;;;;;;39.58;9.65;;;;;;;;;;5051231;28;20075;-69
2024/02/28 09:04:01;;;;;;;26.83;8.60;;;;;;;;;;5052470;28;20080;-69
2024/02/28 09:06:27;;;;;;;35.95;8.55;;;;;;;;;;5052468;28;20738;-69
2024/02/28 09:08:52;;;;;;;37.92;8.13;;;;;;;;;;5051672;28;20036;-67
2024/02/28 09:11:17;;;;;;;31.45;8.05;;;;;;;;;;5051916;28;20041;-69
2024/02/28 09:13:43;;;;;;;28.95;6.30;;;;;;;;;;5046043;28;20029;-71
2024/02/28 09:16:08;;;;;;;33.20;7.72;;;;;;;;;;5047862;28;20041;-69
2024/02/28 09:18:34;;;;;;;23.60;6.43;;;;;;;;;;5042357;28;20037;-69
2024/02/28 09:20:59;;;;;;;32.22;6.80;;;;;;;;;;5048823;28;20025;-69
2024/02/28 09:23:24;;;;;;;18.65;6.05;;;;;;;;;;5050329;28;20033;-69
2024/02/28 09:25:50;;;;;;;20.92;7.15;;;;;;;;;;5056832;28;20095;-69
2024/02/28 09:28:16;;;;;;;25.35;7.05;;;;;;;;;;5052033;28;20029;-69
2024/02/28 09:30:42;;;;;;;21.60;6.90;;;;;;;;;;5052814;28;20112;-68
2024/02/28 09:33:08;;;;;;;21.50;5.90;;;;;;;;;;5031233;28;20043;-70
2024/02/28 09:35:34;;;;;;;25.52;6.30;;;;;;;;;;5051779;28;20045;-68
2024/02/28 09:38:00;;;;;;;23.45;6.13;;;;;;;;;;5050838;28;20052;-68
2024/02/28 09:40:25;;;;;;;20.27;5.63;;;;;;;;;;5051156;28;20091;-68
2024/02/28 09:42:58;;;;;;;13.38;5.68;;;;;;;;;;5051488;28;20041;-69
2024/02/28 09:45:24;;;;;;;20.38;5.05;;;;;;;;;;5016017;28;20037;-69
2024/02/28 09:47:49;;;;;;;18.10;5.00;;;;;;;;;;5032439;28;20449;-70
2024/02/28 09:50:15;;;;;;;25.55;6.15;;;;;;;;;;5029911;28;20115;-69
2024/02/28 09:52:41;;;;;;;18.77;5.57;;;;;;;;;;5043777;28;20052;-68
2024/02/28 09:55:07;;;;;;;18.35;4.93;;;;;;;;;;5050009;28;20047;-69
2024/02/28 09:57:33;;;;;;;16.77;5.28;;;;;;;;;;5049797;28;20507;-68
2024/02/28 09:59:59;;;;;;;14.13;4.38;;;;;;;;;;5049202;28;20087;-69
2024/02/28 10:02:25;;;;;;;15.00;4.20;;;;;;;;;;5032703;28;20075;-69
2024/02/28 10:04:52;;;;;;;17.13;4.50;;;;;;;;;;5032029;28;20461;-71
2024/02/28 10:07:17;;;;;;;19.10;4.20;;;;;;;;;;5049947;28;20120;-69
2024/02/28 10:09:43;;;;;;;12.63;4.03;;;;;;;;;;5049993;28;20686;-68
2024/02/28 10:12:08;;;;;;;17.05;4.82;;;;;;;;;;5031068;28;20044;-68
2024/02/28 10:14:34;;;;;;;13.80;4.70;;;;;;;;;;5048456;28;21597;-68
2024/02/28 10:16:59;;;;;;;18.33;5.53;;;;;;;;;;5020468;28;20051;-69
2024/02/28 10:19:25;;;;;;;20.42;5.13;;;;;;;;;;5028738;28;20112;-69
2024/02/28 10:21:50;;;;;;;14.13;5.10;;;;;;;;;;5028320;28;20089;-71
2024/02/28 10:24:16;;;;;;;24.05;4.65;;;;;;;;;;5046088;28;20045;-69
2024/02/28 10:26:45;;;;;;;9.55;3.70;;;;;;;;;;5046033;28;20149;-69
2024/02/28 10:29:11;;;;;;;14.60;4.32;;;;;;;;;;5028061;28;20092;-69
2024/02/28 10:31:37;;;;;;;12.38;3.67;;;;;;;;;;5028733;28;20070;-69
2024/02/28 10:34:03;;;;;;;13.50;4.18;;;;;;;;;;5024810;28;20041;-69
2024/02/28 10:36:30;;;;;;;17.20;3.55;;;;;;;;;;5051316;28;20049;-69
2024/02/28 10:38:57;;;;;;;11.85;3.58;;;;;;;;;;5027859;28;20049;-69
2024/02/28 10:41:24;;;;;;;8.85;3.15;;;;;;;;;;5024916;28;20037;-70
2024/02/28 10:43:49;;;;;;;17.35;3.85;;;;;;;;;;5027832;28;20128;-68
2024/02/28 10:46:16;;;;;;;13.85;3.50;;;;;;;;;;5046004;28;20191;-70
2024/02/28 10:48:41;;;;;;;23.33;6.93;;;;;;;;;;5021737;28;20047;-69
2024/02/28 10:51:08;;;;;;;12.45;3.63;;;;;;;;;;5030158;28;20044;-69
2024/02/28 10:53:39;;;;;;;13.30;3.33;;;;;;;;;;5027996;28;20040;-69
2024/02/28 10:56:05;;;;;;;12.27;3.50;;;;;;;;;;5026180;28;20028;-68
2024/02/28 10:58:45;;;;;;;20.00;4.85;;;;;;;;;;5026461;28;20036;-69
2024/02/28 11:01:10;;;;;;;14.00;4.90;;;;;;;;;;5027888;28;20028;-70
2024/02/28 11:03:36;;;;;;;9.57;2.85;;;;;;;;;;5041016;28;20049;-69
2024/02/28 11:06:01;;;;;;;10.13;2.35;;;;;;;;;;5044735;28;20041;-70
2024/02/28 11:08:29;;;;;;;12.85;2.45;;;;;;;;;;5037839;28;20025;-71
2024/02/28 11:10:58;;;;;;;12.00;2.33;;;;;;;;;;5046163;28;20098;-69
2024/02/28 11:13:25;;;;;;;9.68;2.45;;;;;;;;;;5044367;28;20579;-69
2024/02/28 11:15:51;;;;;;;11.30;2.05;;;;;;;;;;5045719;28;20044;-70
2024/02/28 11:18:17;;;;;;;15.05;2.40;;;;;;;;;;5027243;28;20124;-70
2024/02/28 11:20:46;;;;;;;8.13;2.22;;;;;;;;;;5027416;28;20131;-70
2024/02/28 11:23:11;;;;;;;10.45;3.03;;;;;;;;;;5044479;28;20646;-69
2024/02/28 11:25:36;;;;;;;9.82;2.08;;;;;;;;;;5045278;28;20053;-71
2024/02/28 11:28:02;;;;;;;17.02;2.70;;;;;;;;;;5043261;28;20033;-70
2024/02/28 11:30:28;;;;;;;13.80;2.85;;;;;;;;;;5041990;28;20041;-70
2024/02/28 11:32:54;;;;;;;16.08;3.15;;;;;;;;;;5044490;28;20143;-69
2024/02/28 11:35:19;;;;;;;9.45;2.17;;;;;;;;;;5044889;28;20048;-68
2024/02/28 11:37:47;;;;;;;10.07;2.20;;;;;;;;;;5042959;28;20033;-70
2024/02/28 11:40:12;;;;;;;12.27;2.28;;;;;;;;;;5013806;28;20049;-68
2024/02/28 11:42:39;;;;;;;13.10;3.53;;;;;;;;;;5027238;28;20029;-68
2024/02/28 11:45:05;;;;;;;12.68;3.58;;;;;;;;;;5044643;28;20581;-69
2024/02/28 11:47:32;;;;;;;14.95;3.65;;;;;;;;;;5022287;28;20071;-69
2024/02/28 11:50:02;;;;;;;9.35;2.65;;;;;;;;;;5026459;28;20040;-69
2024/02/28 11:52:30;;;;;;;8.13;2.67;;;;;;;;;;5044543;28;20044;-70
2024/02/28 11:54:55;;;;;;;9.30;2.72;;;;;;;;;;5043460;28;20045;-70
2024/02/28 11:57:21;;;;;;;15.27;2.72;;;;;;;;;;5015078;28;20393;-69
2024/02/28 11:59:46;;;;;;;11.30;2.67;;;;;;;;;;5026862;28;20060;-69
2024/02/28 12:02:18;;;;;;;10.68;2.83;;;;;;;;;;5046803;28;20403;-71
2024/02/28 12:04:44;;;;;;;9.30;2.75;;;;;;;;;;5022831;28;20083;-69
2024/02/28 12:07:10;;;;;;;8.10;2.03;;;;;;;;;;5024414;28;20045;-69
2024/02/28 12:09:35;;;;;;;9.00;2.03;;;;;;;;;;5026365;28;20439;-69
2024/02/28 12:12:01;;;;;;;12.55;2.35;;;;;;;;;;5046066;28;20108;-69
2024/02/28 12:14:27;;;;;;;8.90;2.20;;;;;;;;;;5044525;28;20068;-69
2024/02/28 12:16:53;;;;;;;13.63;3.38;;;;;;;;;;5043687;28;20428;-70
2024/02/28 12:19:20;;;;;;;10.00;2.00;;;;;;;;;;5026555;28;20033;-69
2024/02/28 12:21:45;;;;;;;13.82;2.30;;;;;;;;;;5048313;28;20385;-68
2024/02/28 12:24:11;;;;;;;8.55;2.00;;;;;;;;;;5047195;28;20094;-70
2024/02/28 12:26:37;;;;;;;9.65;2.08;;;;;;;;;;5049186;28;20112;-70
2024/02/28 12:29:03;;;;;;;10.70;1.80;;;;;;;;;;5048116;28;20047;-68
2024/02/28 12:31:28;;;;;;;6.40;1.60;;;;;;;;;;5029731;28;20032;-69
2024/02/28 12:33:54;;;;;;;9.55;2.05;;;;;;;;;;5047366;28;20700;-70
2024/02/28 12:36:21;;;;;;;3.92;1.40;;;;;;;;;;5025776;28;20111;-68
2024/02/28 12:38:47;;;;;;;10.75;1.80;;;;;;;;;;5030622;28;20068;-69
2024/02/28 12:41:12;;;;;;;14.00;3.42;;;;;;;;;;5046739;28;20440;-68
2024/02/28 12:43:39;;;;;;;7.10;2.95;;;;;;;;;;5029808;28;20040;-69
2024/02/28 12:46:05;;;;;;;8.23;2.40;;;;;;;;;;5029190;28;20049;-70
2024/02/28 12:48:31;;;;;;;6.82;2.20;;;;;;;;;;5047150;28;20124;-70
2024/02/28 12:50:56;;;;;;;7.45;1.85;;;;;;;;;;5045924;28;20428;-71
2024/02/28 12:53:22;;;;;;;7.80;1.85;;;;;;;;;;5038720;28;20033;-70
2024/02/28 12:55:47;;;;;;;9.25;2.03;;;;;;;;;;5048462;28;20063;-70
2024/02/28 12:58:12;;;;;;;10.30;2.22;;;;;;;;;;5044373;28;20041;-69
2024/02/28 13:00:38;;;;;;;7.25;1.60;;;;;;;;;;5042759;28;20443;-69
2024/02/28 13:03:03;;;;;;;6.88;1.73;;;;;;;;;;5048839;28;20040;-70
2024/02/28 13:05:29;;;;;;;8.40;1.80;;;;;;;;;;5045253;28;20037;-70
2024/02/28 13:07:55;;;;;;;8.00;1.88;;;;;;;;;;5028236;28;20060;-70
2024/02/28 13:10:21;;;;;;;10.07;2.17;;;;;;;;;;5045746;28;20060;-70
2024/02/28 13:12:47;;;;;;;13.50;3.15;;;;;;;;;;5045736;28;20036;-69
2024/02/28 13:15:12;;;;;;;11.30;1.98;;;;;;;;;;5045439;28;20121;-69
2024/02/28 13:17:38;;;;;;;13.82;2.47;;;;;;;;;;5047400;28;20122;-70
2024/02/28 13:20:03;;;;;;;8.73;2.05;;;;;;;;;;5046649;28;20044;-69
2024/02/28 13:22:29;;;;;;;5.55;1.88;;;;;;;;;;5033482;28;20040;-70
2024/02/28 13:24:55;;;;;;;6.05;1.83;;;;;;;;;;5045463;28;20072;-69
2024/02/28 13:27:20;;;;;;;8.77;2.67;;;;;;;;;;5026511;28;20037;-70
2024/02/28 13:29:45;;;;;;;10.07;3.22;;;;;;;;;;5027741;28;20040;-69
2024/02/28 13:32:10;;;;;;;11.65;4.28;;;;;;;;;;5028095;28;20615;-70
2024/02/28 13:34:36;;;;;;;12.52;5.20;;;;;;;;;;5025911;28;20552;-69
2024/02/28 13:37:01;;;;;;;15.13;4.03;;;;;;;;;;5049276;28;20491;-69
2024/02/28 13:39:27;;;;;;;23.73;9.55;;;;;;;;;;5046814;28;20534;-71
2024/02/28 13:41:52;;;;;;;23.45;9.88;;;;;;;;;;5047269;28;20098;-69
2024/02/28 13:44:18;;;;;;;11.63;4.10;;;;;;;;;;5043123;28;20040;-71
2024/02/28 13:46:44;;;;;;;9.32;3.20;;;;;;;;;;5028665;28;20063;-70
2024/02/28 13:49:10;;;;;;;7.63;2.67;;;;;;;;;;5046234;28;20037;-69
2024/02/28 13:51:36;;;;;;;8.55;2.75;;;;;;;;;;5044344;28;20047;-70
2024/02/28 13:54:02;;;;;;;9.15;2.63;;;;;;;;;;5025684;28;20533;-69
2024/02/28 13:56:30;;;;;;;5.10;1.83;;;;;;;;;;5046602;28;20060;-70
2024/02/28 13:58:56;;;;;;;4.88;1.92;;;;;;;;;;5043625;28;20024;-69
2024/02/28 14:01:21;;;;;;;7.63;2.15;;;;;;;;;;5046310;28;20033;-69
2024/02/28 14:03:47;;;;;;;5.47;1.70;;;;;;;;;;5032693;28;20048;-70
2024/02/28 14:06:13;;;;;;;5.53;1.98;;;;;;;;;;5044243;28;20037;-68
2024/02/28 14:08:39;;;;;;;3.50;1.60;;;;;;;;;;5045816;28;20454;-70
2024/02/28 14:11:04;;;;;;;3.45;1.23;;;;;;;;;;5046137;28;20040;-70
2024/02/28 14:13:30;;;;;;;5.70;1.60;;;;;;;;;;5032330;28;20041;-70
2024/02/28 14:15:55;;;;;;;4.13;1.58;;;;;;;;;;5028914;28;20068;-69
2024/02/28 14:18:20;;;;;;;5.05;2.22;;;;;;;;;;5044867;28;20033;-71
2024/02/28 14:20:46;;;;;;;4.00;1.50;;;;;;;;;;5046054;28;20540;-69
2024/02/28 14:23:11;;;;;;;5.03;1.20;;;;;;;;;;5046072;28;20048;-69